sensor_id;sensor_type;location;lat;lon;timestamp;P1;durP1;ratioP1;P2;durP2;ratioP2
5869;SDS011;2961;47.702;9.410;2024-02-26T00:01:50;2.83;;;0.80;;
5869;SDS011;2961;47.702;9.410;2024-02-26T00:04:17;0.70;;;0.67;;
5869;SDS011;2961;47.702;9.410;2024-02-26T00:06:44;0.73;;;0.73;;
5869;SDS011;2961;47.702;9.410;2024-02-26T00:09:11;0.97;;;0.97;;
5869;SDS011;2961;47.702;9.410;2024-02-26T00:11:37;0.87;;;0.50;;
5869;SDS011;2961;47.702;9.410;2024-02-26T00:14:04;0.57;;;0.57;;
5869;SDS011;2961;47.702;9.410;2024-02-26T00:16:31;0.70;;;0.70;;
5869;SDS011;2961;47.702;9.410;2024-02-26T00:18:59;3.60;;;0.50;;
5869;SDS011;2961;47.702;9.410;2024-02-26T00:21:27;0.90;;;0.60;;
5869;SDS011;2961;47.702;9.410;2024-02-26T00:23:54;0.43;;;0.43;;
5869;SDS011;2961;47.702;9.410;2024-02-26T00:26:21;0.60;;;0.60;;
5869;SDS011;2961;47.702;9.410;2024-02-26T00:28:48;1.50;;;0.60;;
5869;SDS011;2961;47.702;9.410;2024-02-26T00:31:14;2.93;;;0.53;;
5869;SDS011;2961;47.702;9.410;2024-02-26T00:33:42;0.70;;;0.70;;
5869;SDS011;2961;47.702;9.410;2024-02-26T00:36:10;0.60;;;0.60;;
5869;SDS011;2961;47.702;9.410;2024-02-26T00:38:37;0.60;;;0.50;;
5869;SDS011;2961;47.702;9.410;2024-02-26T00:41:04;0.90;;;0.70;;
5869;SDS011;2961;47.702;9.410;2024-02-26T00:43:31;0.60;;;0.47;;
5869;SDS011;2961;47.702;9.410;2024-02-26T00:45:58;0.97;;;0.70;;
5869;SDS011;2961;47.702;9.410;2024-02-26T00:48:25;0.40;;;0.40;;
5869;SDS011;2961;47.702;9.410;2024-02-26T00:50:52;1.33;;;0.60;;
5869;SDS011;2961;47.702;9.410;2024-02-26T00:53:20;1.50;;;0.70;;
5869;SDS011;2961;47.702;9.410;2024-02-26T00:55:47;2.00;;;0.80;;
5869;SDS011;2961;47.702;9.410;2024-02-26T00:58:13;2.97;;;0.87;;
5869;SDS011;2961;47.702;9.410;2024-02-26T01:00:40;1.00;;;0.67;;
5869;SDS011;2961;47.702;9.410;2024-02-26T01:03:07;0.97;;;0.57;;
5869;SDS011;2961;47.702;9.410;2024-02-26T01:05:35;0.57;;;0.50;;
5869;SDS011;2961;47.702;9.410;2024-02-26T01:08:03;1.03;;;0.70;;
5869;SDS011;2961;47.702;9.410;2024-02-26T01:10:31;16.83;;;3.00;;
5869;SDS011;2961;47.702;9.410;2024-02-26T01:12:59;0.80;;;0.80;;
5869;SDS011;2961;47.702;9.410;2024-02-26T01:15:26;1.07;;;0.70;;
5869;SDS011;2961;47.702;9.410;2024-02-26T01:17:53;0.90;;;0.63;;
5869;SDS011;2961;47.702;9.410;2024-02-26T01:20:19;0.87;;;0.83;;
5869;SDS011;2961;47.702;9.410;2024-02-26T01:22:46;0.90;;;0.90;;
5869;SDS011;2961;47.702;9.410;2024-02-26T01:25:13;0.50;;;0.50;;
5869;SDS011;2961;47.702;9.410;2024-02-26T01:27:42;0.43;;;0.43;;
5869;SDS011;2961;47.702;9.410;2024-02-26T01:30:09;0.53;;;0.53;;
5869;SDS011;2961;47.702;9.410;2024-02-26T01:32:37;0.50;;;0.50;;
5869;SDS011;2961;47.702;9.410;2024-02-26T01:35:04;0.60;;;0.60;;
5869;SDS011;2961;47.702;9.410;2024-02-26T01:37:32;1.03;;;0.70;;
5869;SDS011;2961;47.702;9.410;2024-02-26T01:39:59;0.60;;;0.60;;
5869;SDS011;2961;47.702;9.410;2024-02-26T01:42:29;1.17;;;0.80;;
5869;SDS011;2961;47.702;9.410;2024-02-26T01:44:57;0.60;;;0.60;;
5869;SDS011;2961;47.702;9.410;2024-02-26T01:47:24;0.40;;;0.40;;
5869;SDS011;2961;47.702;9.410;2024-02-26T01:49:52;0.50;;;0.50;;
5869;SDS011;2961;47.702;9.410;2024-02-26T01:52:19;1.73;;;0.50;;
5869;SDS011;2961;47.702;9.410;2024-02-26T01:54:47;0.87;;;0.63;;
5869;SDS011;2961;47.702;9.410;2024-02-26T01:57:15;1.60;;;0.50;;
5869;SDS011;2961;47.702;9.410;2024-02-26T01:59:43;1.80;;;0.50;;
5869;SDS011;2961;47.702;9.410;2024-02-26T02:02:11;0.60;;;0.60;;
5869;SDS011;2961;47.702;9.410;2024-02-26T02:04:38;0.50;;;0.50;;
5869;SDS011;2961;47.702;9.410;2024-02-26T02:07:05;0.50;;;0.50;;
5869;SDS011;2961;47.702;9.410;2024-02-26T02:09:33;0.50;;;0.50;;
5869;SDS011;2961;47.702;9.410;2024-02-26T02:12:00;0.57;;;0.57;;
5869;SDS011;2961;47.702;9.410;2024-02-26T02:14:27;2.20;;;0.50;;
5869;SDS011;2961;47.702;9.410;2024-02-26T02:16:54;0.93;;;0.60;;
5869;SDS011;2961;47.702;9.410;2024-02-26T02:19:22;1.13;;;0.70;;
5869;SDS011;2961;47.702;9.410;2024-02-26T02:21:50;1.03;;;0.53;;
5869;SDS011;2961;47.702;9.410;2024-02-26T02:24:17;3.23;;;0.50;;
5869;SDS011;2961;47.702;9.410;2024-02-26T02:26:44;0.77;;;0.37;;
5869;SDS011;2961;47.702;9.410;2024-02-26T02:29:11;1.70;;;0.60;;
5869;SDS011;2961;47.702;9.410;2024-02-26T02:31:38;0.70;;;0.60;;
5869;SDS011;2961;47.702;9.410;2024-02-26T02:34:05;0.63;;;0.63;;
5869;SDS011;2961;47.702;9.410;2024-02-26T02:36:32;0.60;;;0.60;;
5869;SDS011;2961;47.702;9.410;2024-02-26T02:39:00;0.80;;;0.80;;
5869;SDS011;2961;47.702;9.410;2024-02-26T02:41:28;1.30;;;0.90;;
5869;SDS011;2961;47.702;9.410;2024-02-26T02:43:55;0.63;;;0.63;;
5869;SDS011;2961;47.702;9.410;2024-02-26T02:46:22;0.60;;;0.60;;
5869;SDS011;2961;47.702;9.410;2024-02-26T02:48:49;0.80;;;0.80;;
5869;SDS011;2961;47.702;9.410;2024-02-26T02:51:16;1.10;;;1.10;;
5869;SDS011;2961;47.702;9.410;2024-02-26T02:53:43;1.00;;;0.90;;
5869;SDS011;2961;47.702;9.410;2024-02-26T02:56:11;0.80;;;0.80;;
5869;SDS011;2961;47.702;9.410;2024-02-26T02:58:38;0.90;;;0.90;;
5869;SDS011;2961;47.702;9.410;2024-02-26T03:01:04;0.97;;;0.97;;
5869;SDS011;2961;47.702;9.410;2024-02-26T03:03:31;0.90;;;0.90;;
5869;SDS011;2961;47.702;9.410;2024-02-26T03:05:58;2.13;;;1.17;;
5869;SDS011;2961;47.702;9.410;2024-02-26T03:08:25;0.60;;;0.60;;
5869;SDS011;2961;47.702;9.410;2024-02-26T03:10:52;0.80;;;0.80;;
5869;SDS011;2961;47.702;9.410;2024-02-26T03:13:20;1.07;;;1.00;;
5869;SDS011;2961;47.702;9.410;2024-02-26T03:15:47;0.97;;;0.90;;
5869;SDS011;2961;47.702;9.410;2024-02-26T03:18:14;1.50;;;1.40;;
5869;SDS011;2961;47.702;9.410;2024-02-26T03:20:40;1.53;;;1.40;;
5869;SDS011;2961;47.702;9.410;2024-02-26T03:23:07;3.70;;;1.30;;
5869;SDS011;2961;47.702;9.410;2024-02-26T03:25:37;1.40;;;1.40;;
5869;SDS011;2961;47.702;9.410;2024-02-26T03:28:04;1.63;;;1.53;;
5869;SDS011;2961;47.702;9.410;2024-02-26T03:30:33;1.57;;;1.47;;
5869;SDS011;2961;47.702;9.410;2024-02-26T03:33:00;2.40;;;1.20;;
5869;SDS011;2961;47.702;9.410;2024-02-26T03:35:27;1.40;;;1.37;;
5869;SDS011;2961;47.702;9.410;2024-02-26T03:37:54;1.67;;;1.57;;
5869;SDS011;2961;47.702;9.410;2024-02-26T03:40:21;1.43;;;1.20;;
5869;SDS011;2961;47.702;9.410;2024-02-26T03:42:47;1.73;;;1.33;;
5869;SDS011;2961;47.702;9.410;2024-02-26T03:45:14;1.97;;;1.60;;
5869;SDS011;2961;47.702;9.410;2024-02-26T03:47:42;1.80;;;1.70;;
5869;SDS011;2961;47.702;9.410;2024-02-26T03:50:09;1.13;;;1.03;;
5869;SDS011;2961;47.702;9.410;2024-02-26T03:52:36;2.07;;;1.97;;
5869;SDS011;2961;47.702;9.410;2024-02-26T03:55:03;1.37;;;1.03;;
5869;SDS011;2961;47.702;9.410;2024-02-26T03:57:30;1.30;;;1.30;;
5869;SDS011;2961;47.702;9.410;2024-02-26T03:59:57;1.13;;;1.13;;
5869;SDS011;2961;47.702;9.410;2024-02-26T04:02:24;1.83;;;1.20;;
5869;SDS011;2961;47.702;9.410;2024-02-26T04:04:53;1.10;;;1.10;;
5869;SDS011;2961;47.702;9.410;2024-02-26T04:07:20;1.10;;;1.10;;
5869;SDS011;2961;47.702;9.410;2024-02-26T04:09:47;2.20;;;1.50;;
5869;SDS011;2961;47.702;9.410;2024-02-26T04:12:13;1.50;;;1.40;;
5869;SDS011;2961;47.702;9.410;2024-02-26T04:14:40;1.53;;;1.43;;
5869;SDS011;2961;47.702;9.410;2024-02-26T04:17:07;1.53;;;0.90;;
5869;SDS011;2961;47.702;9.410;2024-02-26T04:19:34;3.73;;;0.97;;
5869;SDS011;2961;47.702;9.410;2024-02-26T04:22:02;1.90;;;0.80;;
5869;SDS011;2961;47.702;9.410;2024-02-26T04:24:29;0.67;;;0.67;;
5869;SDS011;2961;47.702;9.410;2024-02-26T04:26:56;5.13;;;0.80;;
5869;SDS011;2961;47.702;9.410;2024-02-26T04:29:21;2.03;;;0.83;;
5869;SDS011;2961;47.702;9.410;2024-02-26T04:31:48;0.47;;;0.47;;
5869;SDS011;2961;47.702;9.410;2024-02-26T04:34:15;0.50;;;0.50;;
5869;SDS011;2961;47.702;9.410;2024-02-26T04:36:42;0.53;;;0.53;;
5869;SDS011;2961;47.702;9.410;2024-02-26T04:39:10;0.50;;;0.50;;
5869;SDS011;2961;47.702;9.410;2024-02-26T04:41:37;6.80;;;0.70;;
5869;SDS011;2961;47.702;9.410;2024-02-26T04:44:04;0.60;;;0.50;;
5869;SDS011;2961;47.702;9.410;2024-02-26T04:46:31;1.27;;;0.70;;
5869;SDS011;2961;47.702;9.410;2024-02-26T04:48:57;0.97;;;0.73;;
5869;SDS011;2961;47.702;9.410;2024-02-26T04:51:24;3.67;;;0.70;;
5869;SDS011;2961;47.702;9.410;2024-02-26T04:53:51;0.80;;;0.80;;
5869;SDS011;2961;47.702;9.410;2024-02-26T04:56:21;0.93;;;0.73;;
5869;SDS011;2961;47.702;9.410;2024-02-26T04:58:48;0.63;;;0.63;;
5869;SDS011;2961;47.702;9.410;2024-02-26T05:01:15;0.70;;;0.70;;
5869;SDS011;2961;47.702;9.410;2024-02-26T05:03:42;1.40;;;1.13;;
5869;SDS011;2961;47.702;9.410;2024-02-26T05:06:09;2.23;;;1.03;;
5869;SDS011;2961;47.702;9.410;2024-02-26T05:08:36;0.83;;;0.83;;
5869;SDS011;2961;47.702;9.410;2024-02-26T05:11:04;1.27;;;0.83;;
5869;SDS011;2961;47.702;9.410;2024-02-26T05:13:32;0.60;;;0.60;;
5869;SDS011;2961;47.702;9.410;2024-02-26T05:15:59;1.40;;;0.90;;
5869;SDS011;2961;47.702;9.410;2024-02-26T05:18:27;1.10;;;1.10;;
5869;SDS011;2961;47.702;9.410;2024-02-26T05:20:54;1.73;;;1.40;;
5869;SDS011;2961;47.702;9.410;2024-02-26T05:23:20;1.10;;;1.07;;
5869;SDS011;2961;47.702;9.410;2024-02-26T05:25:48;0.93;;;0.93;;
5869;SDS011;2961;47.702;9.410;2024-02-26T05:28:15;1.73;;;1.63;;
5869;SDS011;2961;47.702;9.410;2024-02-26T05:30:43;1.77;;;1.70;;
5869;SDS011;2961;47.702;9.410;2024-02-26T05:33:10;2.93;;;1.80;;
5869;SDS011;2961;47.702;9.410;2024-02-26T05:35:36;1.33;;;1.23;;
5869;SDS011;2961;47.702;9.410;2024-02-26T05:38:03;1.27;;;1.00;;
5869;SDS011;2961;47.702;9.410;2024-02-26T05:40:31;2.07;;;1.87;;
5869;SDS011;2961;47.702;9.410;2024-02-26T05:42:58;3.70;;;1.10;;
5869;SDS011;2961;47.702;9.410;2024-02-26T05:45:24;1.27;;;1.20;;
5869;SDS011;2961;47.702;9.410;2024-02-26T05:47:52;2.00;;;1.35;;
5869;SDS011;2961;47.702;9.410;2024-02-26T05:50:19;1.43;;;1.33;;
5869;SDS011;2961;47.702;9.410;2024-02-26T05:52:46;1.33;;;1.23;;
5869;SDS011;2961;47.702;9.410;2024-02-26T05:55:13;2.50;;;1.70;;
5869;SDS011;2961;47.702;9.410;2024-02-26T05:57:39;1.10;;;1.10;;
5869;SDS011;2961;47.702;9.410;2024-02-26T06:00:07;1.77;;;1.67;;
5869;SDS011;2961;47.702;9.410;2024-02-26T06:02:34;1.47;;;1.10;;
5869;SDS011;2961;47.702;9.410;2024-02-26T06:05:03;4.77;;;0.97;;
5869;SDS011;2961;47.702;9.410;2024-02-26T06:07:32;4.40;;;1.00;;
5869;SDS011;2961;47.702;9.410;2024-02-26T06:09:59;2.80;;;1.53;;
5869;SDS011;2961;47.702;9.410;2024-02-26T06:12:27;1.60;;;1.50;;
5869;SDS011;2961;47.702;9.410;2024-02-26T06:14:55;4.87;;;1.53;;
5869;SDS011;2961;47.702;9.410;2024-02-26T06:17:23;1.37;;;1.30;;
5869;SDS011;2961;47.702;9.410;2024-02-26T06:19:50;1.40;;;1.37;;
5869;SDS011;2961;47.702;9.410;2024-02-26T06:22:18;1.60;;;1.50;;
5869;SDS011;2961;47.702;9.410;2024-02-26T06:24:45;3.70;;;2.20;;
5869;SDS011;2961;47.702;9.410;2024-02-26T06:27:12;5.23;;;1.40;;
5869;SDS011;2961;47.702;9.410;2024-02-26T06:29:39;1.23;;;1.23;;
5869;SDS011;2961;47.702;9.410;2024-02-26T06:32:06;2.47;;;1.97;;
5869;SDS011;2961;47.702;9.410;2024-02-26T06:34:32;1.40;;;1.38;;
5869;SDS011;2961;47.702;9.410;2024-02-26T06:36:59;1.50;;;1.40;;
5869;SDS011;2961;47.702;9.410;2024-02-26T06:39:27;1.30;;;1.17;;
5869;SDS011;2961;47.702;9.410;2024-02-26T06:41:54;1.43;;;1.30;;
5869;SDS011;2961;47.702;9.410;2024-02-26T06:44:25;1.53;;;1.50;;
5869;SDS011;2961;47.702;9.410;2024-02-26T06:46:56;1.90;;;1.73;;
5869;SDS011;2961;47.702;9.410;2024-02-26T06:49:23;1.23;;;1.23;;
5869;SDS011;2961;47.702;9.410;2024-02-26T06:51:50;11.57;;;1.40;;
5869;SDS011;2961;47.702;9.410;2024-02-26T06:54:17;3.03;;;1.40;;
5869;SDS011;2961;47.702;9.410;2024-02-26T06:56:45;1.33;;;1.20;;
5869;SDS011;2961;47.702;9.410;2024-02-26T06:59:12;1.30;;;1.20;;
5869;SDS011;2961;47.702;9.410;2024-02-26T07:01:39;1.83;;;1.77;;
5869;SDS011;2961;47.702;9.410;2024-02-26T07:04:07;1.40;;;1.37;;
5869;SDS011;2961;47.702;9.410;2024-02-26T07:06:33;1.40;;;1.30;;
5869;SDS011;2961;47.702;9.410;2024-02-26T07:09:00;1.85;;;1.75;;
5869;SDS011;2961;47.702;9.410;2024-02-26T07:11:27;1.60;;;1.50;;
5869;SDS011;2961;47.702;9.410;2024-02-26T07:13:55;1.57;;;1.30;;
5869;SDS011;2961;47.702;9.410;2024-02-26T07:16:22;5.03;;;1.63;;
5869;SDS011;2961;47.702;9.410;2024-02-26T07:18:49;1.43;;;1.40;;
5869;SDS011;2961;47.702;9.410;2024-02-26T07:21:16;5.63;;;1.63;;
5869;SDS011;2961;47.702;9.410;2024-02-26T07:23:42;1.13;;;1.13;;
5869;SDS011;2961;47.702;9.410;2024-02-26T07:26:09;1.43;;;1.30;;
5869;SDS011;2961;47.702;9.410;2024-02-26T07:28:37;1.50;;;1.40;;
5869;SDS011;2961;47.702;9.410;2024-02-26T07:31:05;1.67;;;1.57;;
5869;SDS011;2961;47.702;9.410;2024-02-26T07:33:31;1.40;;;1.30;;
5869;SDS011;2961;47.702;9.410;2024-02-26T07:35:58;0.90;;;0.90;;
5869;SDS011;2961;47.702;9.410;2024-02-26T07:38:25;1.27;;;1.17;;
5869;SDS011;2961;47.702;9.410;2024-02-26T07:40:52;1.47;;;1.20;;
5869;SDS011;2961;47.702;9.410;2024-02-26T07:43:19;1.27;;;1.07;;
5869;SDS011;2961;47.702;9.410;2024-02-26T07:45:45;1.63;;;1.43;;
5869;SDS011;2961;47.702;9.410;2024-02-26T07:48:14;1.90;;;1.80;;
5869;SDS011;2961;47.702;9.410;2024-02-26T07:50:40;1.63;;;1.47;;
5869;SDS011;2961;47.702;9.410;2024-02-26T07:53:07;1.20;;;1.10;;
5869;SDS011;2961;47.702;9.410;2024-02-26T07:55:34;1.60;;;1.40;;
5869;SDS011;2961;47.702;9.410;2024-02-26T07:58:01;1.93;;;1.73;;
5869;SDS011;2961;47.702;9.410;2024-02-26T08:00:28;3.07;;;1.50;;
5869;SDS011;2961;47.702;9.410;2024-02-26T08:02:54;4.13;;;1.77;;
5869;SDS011;2961;47.702;9.410;2024-02-26T08:05:23;2.00;;;1.83;;
5869;SDS011;2961;47.702;9.410;2024-02-26T08:07:49;2.30;;;2.13;;
5869;SDS011;2961;47.702;9.410;2024-02-26T08:10:16;2.27;;;2.07;;
5869;SDS011;2961;47.702;9.410;2024-02-26T08:12:43;2.23;;;1.83;;
5869;SDS011;2961;47.702;9.410;2024-02-26T08:15:11;2.00;;;1.90;;
5869;SDS011;2961;47.702;9.410;2024-02-26T08:17:37;2.20;;;1.90;;
5869;SDS011;2961;47.702;9.410;2024-02-26T08:20:05;2.20;;;2.10;;
5869;SDS011;2961;47.702;9.410;2024-02-26T08:22:33;2.37;;;2.17;;
5869;SDS011;2961;47.702;9.410;2024-02-26T08:25:00;2.47;;;2.27;;
5869;SDS011;2961;47.702;9.410;2024-02-26T08:27:31;2.20;;;2.00;;
5869;SDS011;2961;47.702;9.410;2024-02-26T08:29:58;2.87;;;2.67;;
5869;SDS011;2961;47.702;9.410;2024-02-26T08:32:25;2.13;;;1.93;;
5869;SDS011;2961;47.702;9.410;2024-02-26T08:34:52;4.90;;;2.23;;
5869;SDS011;2961;47.702;9.410;2024-02-26T08:37:18;4.30;;;2.70;;
5869;SDS011;2961;47.702;9.410;2024-02-26T08:39:46;4.57;;;2.93;;
5869;SDS011;2961;47.702;9.410;2024-02-26T08:42:13;3.10;;;2.40;;
5869;SDS011;2961;47.702;9.410;2024-02-26T08:44:40;2.40;;;2.30;;
5869;SDS011;2961;47.702;9.410;2024-02-26T08:47:07;2.10;;;2.00;;
5869;SDS011;2961;47.702;9.410;2024-02-26T08:49:34;3.47;;;1.90;;
5869;SDS011;2961;47.702;9.410;2024-02-26T08:52:00;2.87;;;1.70;;
5869;SDS011;2961;47.702;9.410;2024-02-26T08:54:27;4.53;;;2.20;;
5869;SDS011;2961;47.702;9.410;2024-02-26T08:56:55;3.37;;;2.20;;
5869;SDS011;2961;47.702;9.410;2024-02-26T08:59:22;2.10;;;2.00;;
5869;SDS011;2961;47.702;9.410;2024-02-26T09:01:49;2.07;;;1.80;;
5869;SDS011;2961;47.702;9.410;2024-02-26T09:04:15;2.47;;;2.10;;
5869;SDS011;2961;47.702;9.410;2024-02-26T09:06:42;3.07;;;2.20;;
5869;SDS011;2961;47.702;9.410;2024-02-26T09:09:09;3.67;;;2.60;;
5869;SDS011;2961;47.702;9.410;2024-02-26T09:11:36;2.90;;;2.40;;
5869;SDS011;2961;47.702;9.410;2024-02-26T09:14:04;5.33;;;2.10;;
5869;SDS011;2961;47.702;9.410;2024-02-26T09:16:31;2.30;;;2.10;;
5869;SDS011;2961;47.702;9.410;2024-02-26T09:18:57;2.70;;;2.20;;
5869;SDS011;2961;47.702;9.410;2024-02-26T09:21:24;3.73;;;2.30;;
5869;SDS011;2961;47.702;9.410;2024-02-26T09:23:51;2.50;;;2.17;;
5869;SDS011;2961;47.702;9.410;2024-02-26T09:26:19;3.63;;;2.00;;
5869;SDS011;2961;47.702;9.410;2024-02-26T09:28:46;1.60;;;1.50;;
5869;SDS011;2961;47.702;9.410;2024-02-26T09:31:15;2.17;;;2.07;;
5869;SDS011;2961;47.702;9.410;2024-02-26T09:33:44;2.00;;;1.90;;
5869;SDS011;2961;47.702;9.410;2024-02-26T09:36:11;2.47;;;1.77;;
5869;SDS011;2961;47.702;9.410;2024-02-26T09:38:38;1.87;;;1.77;;
5869;SDS011;2961;47.702;9.410;2024-02-26T09:41:05;1.77;;;1.67;;
5869;SDS011;2961;47.702;9.410;2024-02-26T09:43:33;1.40;;;1.40;;
5869;SDS011;2961;47.702;9.410;2024-02-26T09:46:01;1.60;;;1.50;;
5869;SDS011;2961;47.702;9.410;2024-02-26T09:48:29;2.07;;;1.80;;
5869;SDS011;2961;47.702;9.410;2024-02-26T09:50:56;1.30;;;1.30;;
5869;SDS011;2961;47.702;9.410;2024-02-26T09:53:23;4.13;;;2.00;;
5869;SDS011;2961;47.702;9.410;2024-02-26T09:55:50;5.40;;;2.40;;
5869;SDS011;2961;47.702;9.410;2024-02-26T09:58:17;1.20;;;1.20;;
5869;SDS011;2961;47.702;9.410;2024-02-26T10:00:46;1.83;;;1.73;;
5869;SDS011;2961;47.702;9.410;2024-02-26T10:03:17;1.37;;;1.37;;
5869;SDS011;2961;47.702;9.410;2024-02-26T10:05:50;3.73;;;1.70;;
5869;SDS011;2961;47.702;9.410;2024-02-26T10:08:20;3.40;;;2.00;;
5869;SDS011;2961;47.702;9.410;2024-02-26T10:10:48;1.60;;;1.50;;
5869;SDS011;2961;47.702;9.410;2024-02-26T10:13:15;2.23;;;1.63;;
5869;SDS011;2961;47.702;9.410;2024-02-26T10:15:42;3.13;;;1.23;;
5869;SDS011;2961;47.702;9.410;2024-02-26T10:18:09;2.30;;;2.20;;
5869;SDS011;2961;47.702;9.410;2024-02-26T10:20:36;2.77;;;1.67;;
5869;SDS011;2961;47.702;9.410;2024-02-26T10:23:04;1.50;;;1.40;;
5869;SDS011;2961;47.702;9.410;2024-02-26T10:25:31;1.63;;;1.53;;
5869;SDS011;2961;47.702;9.410;2024-02-26T10:27:59;1.20;;;1.20;;
5869;SDS011;2961;47.702;9.410;2024-02-26T10:30:28;1.53;;;1.20;;
5869;SDS011;2961;47.702;9.410;2024-02-26T10:32:55;2.90;;;1.90;;
5869;SDS011;2961;47.702;9.410;2024-02-26T10:35:22;1.63;;;1.53;;
5869;SDS011;2961;47.702;9.410;2024-02-26T10:37:49;2.10;;;1.50;;
5869;SDS011;2961;47.702;9.410;2024-02-26T10:40:18;2.20;;;1.33;;
5869;SDS011;2961;47.702;9.410;2024-02-26T10:42:45;2.03;;;1.30;;
5869;SDS011;2961;47.702;9.410;2024-02-26T10:45:11;1.80;;;1.70;;
5869;SDS011;2961;47.702;9.410;2024-02-26T10:47:39;1.47;;;1.40;;
5869;SDS011;2961;47.702;9.410;2024-02-26T10:50:07;1.77;;;1.67;;
5869;SDS011;2961;47.702;9.410;2024-02-26T10:52:35;1.50;;;1.40;;
5869;SDS011;2961;47.702;9.410;2024-02-26T10:55:03;1.60;;;1.50;;
5869;SDS011;2961;47.702;9.410;2024-02-26T10:57:33;1.70;;;1.30;;
5869;SDS011;2961;47.702;9.410;2024-02-26T11:00:04;1.33;;;1.33;;
5869;SDS011;2961;47.702;9.410;2024-02-26T11:02:32;1.20;;;1.20;;
5869;SDS011;2961;47.702;9.410;2024-02-26T11:05:00;1.60;;;1.60;;
5869;SDS011;2961;47.702;9.410;2024-02-26T11:07:28;1.70;;;1.60;;
5869;SDS011;2961;47.702;9.410;2024-02-26T11:09:57;1.53;;;1.50;;
5869;SDS011;2961;47.702;9.410;2024-02-26T11:12:25;1.40;;;1.40;;
5869;SDS011;2961;47.702;9.410;2024-02-26T11:14:55;8.07;;;2.87;;
5869;SDS011;2961;47.702;9.410;2024-02-26T11:17:23;13.10;;;3.20;;
5869;SDS011;2961;47.702;9.410;2024-02-26T11:19:53;11.03;;;2.60;;
5869;SDS011;2961;47.702;9.410;2024-02-26T11:22:22;2.83;;;2.63;;
5869;SDS011;2961;47.702;9.410;2024-02-26T11:24:51;3.90;;;3.00;;
5869;SDS011;2961;47.702;9.410;2024-02-26T11:27:19;5.47;;;3.10;;
5869;SDS011;2961;47.702;9.410;2024-02-26T11:29:51;5.53;;;3.00;;
5869;SDS011;2961;47.702;9.410;2024-02-26T11:32:21;7.80;;;3.20;;
5869;SDS011;2961;47.702;9.410;2024-02-26T11:34:48;6.83;;;3.70;;
5869;SDS011;2961;47.702;9.410;2024-02-26T11:37:16;6.00;;;4.17;;
5869;SDS011;2961;47.702;9.410;2024-02-26T11:39:43;3.40;;;3.10;;
5869;SDS011;2961;47.702;9.410;2024-02-26T11:42:13;4.50;;;3.47;;
5869;SDS011;2961;47.702;9.410;2024-02-26T11:44:41;5.53;;;4.10;;
5869;SDS011;2961;47.702;9.410;2024-02-26T11:47:11;4.37;;;3.87;;
5869;SDS011;2961;47.702;9.410;2024-02-26T11:49:40;3.63;;;3.30;;
5869;SDS011;2961;47.702;9.410;2024-02-26T11:52:08;3.47;;;3.17;;
5869;SDS011;2961;47.702;9.410;2024-02-26T11:54:45;2.83;;;2.63;;
5869;SDS011;2961;47.702;9.410;2024-02-26T11:57:22;3.30;;;3.10;;
5869;SDS011;2961;47.702;9.410;2024-02-26T11:59:52;8.97;;;3.20;;
5869;SDS011;2961;47.702;9.410;2024-02-26T12:02:39;2.80;;;2.47;;
5869;SDS011;2961;47.702;9.410;2024-02-26T12:05:10;5.73;;;3.07;;
5869;SDS011;2961;47.702;9.410;2024-02-26T12:07:39;4.67;;;3.03;;
5869;SDS011;2961;47.702;9.410;2024-02-26T12:10:14;4.03;;;3.07;;
5869;SDS011;2961;47.702;9.410;2024-02-26T12:12:55;6.90;;;3.70;;
5869;SDS011;2961;47.702;9.410;2024-02-26T12:15:30;4.60;;;4.17;;
5869;SDS011;2961;47.702;9.410;2024-02-26T12:17:59;6.30;;;3.60;;
5869;SDS011;2961;47.702;9.410;2024-02-26T12:20:29;5.38;;;3.45;;
5869;SDS011;2961;47.702;9.410;2024-02-26T12:22:56;4.80;;;3.30;;
5869;SDS011;2961;47.702;9.410;2024-02-26T12:25:24;4.30;;;3.90;;
5869;SDS011;2961;47.702;9.410;2024-02-26T12:27:52;6.13;;;3.30;;
5869;SDS011;2961;47.702;9.410;2024-02-26T12:30:19;3.83;;;3.40;;
5869;SDS011;2961;47.702;9.410;2024-02-26T12:32:46;3.20;;;2.90;;
5869;SDS011;2961;47.702;9.410;2024-02-26T12:35:14;3.63;;;3.10;;
5869;SDS011;2961;47.702;9.410;2024-02-26T12:37:43;3.07;;;2.77;;
5869;SDS011;2961;47.702;9.410;2024-02-26T12:40:11;3.20;;;2.57;;
5869;SDS011;2961;47.702;9.410;2024-02-26T12:42:38;4.77;;;2.40;;
5869;SDS011;2961;47.702;9.410;2024-02-26T12:45:06;4.20;;;3.20;;
5869;SDS011;2961;47.702;9.410;2024-02-26T12:47:36;3.03;;;2.83;;
5869;SDS011;2961;47.702;9.410;2024-02-26T12:50:04;10.80;;;3.43;;
5869;SDS011;2961;47.702;9.410;2024-02-26T12:52:32;4.63;;;3.07;;
5869;SDS011;2961;47.702;9.410;2024-02-26T12:55:01;3.20;;;2.83;;
5869;SDS011;2961;47.702;9.410;2024-02-26T12:57:29;5.37;;;2.77;;
5869;SDS011;2961;47.702;9.410;2024-02-26T12:59:57;2.87;;;2.67;;
5869;SDS011;2961;47.702;9.410;2024-02-26T13:02:25;7.97;;;3.00;;
5869;SDS011;2961;47.702;9.410;2024-02-26T13:04:52;8.27;;;3.13;;
5869;SDS011;2961;47.702;9.410;2024-02-26T13:07:20;4.80;;;3.90;;
5869;SDS011;2961;47.702;9.410;2024-02-26T13:09:47;5.30;;;3.60;;
5869;SDS011;2961;47.702;9.410;2024-02-26T13:12:16;4.30;;;3.53;;
5869;SDS011;2961;47.702;9.410;2024-02-26T13:14:43;5.50;;;3.83;;
5869;SDS011;2961;47.702;9.410;2024-02-26T13:17:10;4.93;;;3.30;;
5869;SDS011;2961;47.702;9.410;2024-02-26T13:19:37;3.10;;;2.80;;
5869;SDS011;2961;47.702;9.410;2024-02-26T13:22:14;3.20;;;2.50;;
5869;SDS011;2961;47.702;9.410;2024-02-26T13:24:41;3.90;;;3.00;;
5869;SDS011;2961;47.702;9.410;2024-02-26T13:27:08;2.97;;;2.70;;
5869;SDS011;2961;47.702;9.410;2024-02-26T13:29:36;1.70;;;1.50;;
5869;SDS011;2961;47.702;9.410;2024-02-26T13:32:03;1.90;;;1.80;;
5869;SDS011;2961;47.702;9.410;2024-02-26T13:34:32;1.87;;;1.50;;
5869;SDS011;2961;47.702;9.410;2024-02-26T13:37:00;3.50;;;1.30;;
5869;SDS011;2961;47.702;9.410;2024-02-26T13:39:27;1.20;;;1.20;;
5869;SDS011;2961;47.702;9.410;2024-02-26T13:41:55;1.80;;;0.97;;
5869;SDS011;2961;47.702;9.410;2024-02-26T13:44:22;2.70;;;2.50;;
5869;SDS011;2961;47.702;9.410;2024-02-26T13:46:50;5.87;;;3.20;;
5869;SDS011;2961;47.702;9.410;2024-02-26T13:49:17;3.70;;;3.33;;
5869;SDS011;2961;47.702;9.410;2024-02-26T13:51:44;3.50;;;3.20;;
5869;SDS011;2961;47.702;9.410;2024-02-26T13:54:10;3.20;;;2.90;;
5869;SDS011;2961;47.702;9.410;2024-02-26T13:56:39;4.00;;;2.85;;
5869;SDS011;2961;47.702;9.410;2024-02-26T13:59:06;2.73;;;2.40;;
5869;SDS011;2961;47.702;9.410;2024-02-26T14:01:33;3.67;;;2.60;;
5869;SDS011;2961;47.702;9.410;2024-02-26T14:04:01;5.23;;;2.97;;
5869;SDS011;2961;47.702;9.410;2024-02-26T14:06:29;4.83;;;2.97;;
5869;SDS011;2961;47.702;9.410;2024-02-26T14:08:57;11.13;;;3.33;;
5869;SDS011;2961;47.702;9.410;2024-02-26T14:11:23;2.80;;;2.60;;
5869;SDS011;2961;47.702;9.410;2024-02-26T14:13:50;6.57;;;3.33;;
5869;SDS011;2961;47.702;9.410;2024-02-26T14:16:18;3.53;;;2.83;;
5869;SDS011;2961;47.702;9.410;2024-02-26T14:18:45;2.73;;;2.53;;
5869;SDS011;2961;47.702;9.410;2024-02-26T14:21:13;3.10;;;2.90;;
5869;SDS011;2961;47.702;9.410;2024-02-26T14:23:40;4.07;;;3.53;;
5869;SDS011;2961;47.702;9.410;2024-02-26T14:26:09;10.30;;;2.97;;
5869;SDS011;2961;47.702;9.410;2024-02-26T14:28:36;2.83;;;2.53;;
5869;SDS011;2961;47.702;9.410;2024-02-26T14:31:03;2.17;;;1.90;;
5869;SDS011;2961;47.702;9.410;2024-02-26T14:33:30;3.20;;;1.60;;
5869;SDS011;2961;47.702;9.410;2024-02-26T14:35:57;2.07;;;1.90;;
5869;SDS011;2961;47.702;9.410;2024-02-26T14:38:25;1.70;;;1.70;;
5869;SDS011;2961;47.702;9.410;2024-02-26T14:40:52;2.43;;;1.30;;
5869;SDS011;2961;47.702;9.410;2024-02-26T14:43:19;1.33;;;1.27;;
5869;SDS011;2961;47.702;9.410;2024-02-26T14:45:46;4.90;;;2.47;;
5869;SDS011;2961;47.702;9.410;2024-02-26T14:48:12;5.63;;;3.67;;
5869;SDS011;2961;47.702;9.410;2024-02-26T14:50:39;1.57;;;1.47;;
5869;SDS011;2961;47.702;9.410;2024-02-26T14:53:06;2.00;;;1.40;;
5869;SDS011;2961;47.702;9.410;2024-02-26T14:55:34;2.40;;;1.60;;
5869;SDS011;2961;47.702;9.410;2024-02-26T14:58:01;1.37;;;1.30;;
5869;SDS011;2961;47.702;9.410;2024-02-26T15:00:28;1.70;;;1.60;;
5869;SDS011;2961;47.702;9.410;2024-02-26T15:02:58;4.50;;;1.40;;
5869;SDS011;2961;47.702;9.410;2024-02-26T15:05:25;2.90;;;1.83;;
5869;SDS011;2961;47.702;9.410;2024-02-26T15:07:52;2.10;;;1.20;;
5869;SDS011;2961;47.702;9.410;2024-02-26T15:10:19;2.67;;;1.20;;
5869;SDS011;2961;47.702;9.410;2024-02-26T15:12:47;1.40;;;1.20;;
5869;SDS011;2961;47.702;9.410;2024-02-26T15:15:15;1.03;;;1.00;;
5869;SDS011;2961;47.702;9.410;2024-02-26T15:17:42;4.53;;;1.20;;